sensor_id;sensor_type;location;lat;lon;timestamp;pressure;altitude;pressure_sealevel;temperature;humidity
11487;BME280;10510;47.942;9.442;2023-03-16T00:01:20;94847.75;;;-1.59;100.00
11487;BME280;10510;47.942;9.442;2023-03-16T00:03:21;94836.81;;;-1.61;100.00
11487;BME280;10510;47.942;9.442;2023-03-16T00:05:21;94842.03;;;-1.63;100.00
11487;BME280;10510;47.942;9.442;2023-03-16T00:07:24;94840.28;;;-1.62;100.00
11487;BME280;10510;47.942;9.442;2023-03-16T00:09:25;94838.63;;;-1.63;100.00
11487;BME280;10510;47.942;9.442;2023-03-16T00:11:30;94836.06;;;-1.63;100.00
11487;BME280;10510;47.942;9.442;2023-03-16T00:13:30;94835.25;;;-1.64;100.00
11487;BME280;10510;47.942;9.442;2023-03-16T00:15:31;94841.31;;;-1.65;100.00
11487;BME280;10510;47.942;9.442;2023-03-16T00:17:31;94832.78;;;-1.65;100.00
11487;BME280;10510;47.942;9.442;2023-03-16T00:19:33;94835.34;;;-1.65;100.00
11487;BME280;10510;47.942;9.442;2023-03-16T00:21:34;94843.03;;;-1.65;100.00
11487;BME280;10510;47.942;9.442;2023-03-16T00:23:35;94830.44;;;-1.68;100.00
11487;BME280;10510;47.942;9.442;2023-03-16T00:25:35;94829.63;;;-1.69;100.00
11487;BME280;10510;47.942;9.442;2023-03-16T00:27:35;94824.63;;;-1.70;100.00
11487;BME280;10510;47.942;9.442;2023-03-16T00:29:35;94823.69;;;-1.69;100.00
11487;BME280;10510;47.942;9.442;2023-03-16T00:31:37;94825.31;;;-1.68;100.00
11487;BME280;10510;47.942;9.442;2023-03-16T00:33:38;94828.00;;;-1.70;100.00
11487;BME280;10510;47.942;9.442;2023-03-16T00:35:38;94827.06;;;-1.69;100.00
11487;BME280;10510;47.942;9.442;2023-03-16T00:37:39;94825.53;;;-1.71;100.00
11487;BME280;10510;47.942;9.442;2023-03-16T00:39:41;94830.75;;;-1.73;100.00
11487;BME280;10510;47.942;9.442;2023-03-16T00:41:42;94824.09;;;-1.75;100.00
11487;BME280;10510;47.942;9.442;2023-03-16T00:43:43;94825.84;;;-1.76;100.00
11487;BME280;10510;47.942;9.442;2023-03-16T00:45:45;94829.31;;;-1.77;100.00
11487;BME280;10510;47.942;9.442;2023-03-16T00:47:45;94823.38;;;-1.77;100.00
11487;BME280;10510;47.942;9.442;2023-03-16T00:49:45;94818.25;;;-1.77;100.00
11487;BME280;10510;47.942;9.442;2023-03-16T00:51:46;94815.81;;;-1.79;100.00
11487;BME280;10510;47.942;9.442;2023-03-16T00:53:46;94818.59;;;-1.82;100.00
11487;BME280;10510;47.942;9.442;2023-03-16T00:55:46;94810.47;;;-1.89;100.00
11487;BME280;10510;47.942;9.442;2023-03-16T00:57:47;94813.44;;;-1.95;100.00
11487;BME280;10510;47.942;9.442;2023-03-16T00:59:48;94808.44;;;-1.96;100.00
11487;BME280;10510;47.942;9.442;2023-03-16T01:01:48;94805.97;;;-1.98;100.00
11487;BME280;10510;47.942;9.442;2023-03-16T01:03:48;94801.78;;;-1.99;100.00
11487;BME280;10510;47.942;9.442;2023-03-16T01:05:48;94804.44;;;-2.00;100.00
11487;BME280;10510;47.942;9.442;2023-03-16T01:07:49;94802.78;;;-2.01;100.00
11487;BME280;10510;47.942;9.442;2023-03-16T01:09:51;94804.53;;;-2.02;100.00
11487;BME280;10510;47.942;9.442;2023-03-16T01:11:51;94810.56;;;-2.03;100.00
11487;BME280;10510;47.942;9.442;2023-03-16T01:13:53;94812.44;;;-2.05;100.00
11487;BME280;10510;47.942;9.442;2023-03-16T01:15:53;94810.78;;;-2.06;100.00
11487;BME280;10510;47.942;9.442;2023-03-16T01:17:54;94810.91;;;-2.08;100.00
11487;BME280;10510;47.942;9.442;2023-03-16T01:19:54;94810.91;;;-2.08;100.00
11487;BME280;10510;47.942;9.442;2023-03-16T01:21:55;94813.53;;;-2.09;100.00
11487;BME280;10510;47.942;9.442;2023-03-16T01:23:55;94806.78;;;-2.10;100.00
11487;BME280;10510;47.942;9.442;2023-03-16T01:25:56;94806.19;;;-2.14;100.00
11487;BME280;10510;47.942;9.442;2023-03-16T01:27:57;94809.84;;;-2.18;100.00
11487;BME280;10510;47.942;9.442;2023-03-16T01:29:57;94809.25;;;-2.21;100.00
11487;BME280;10510;47.942;9.442;2023-03-16T01:31:58;94810.38;;;-2.25;100.00
11487;BME280;10510;47.942;9.442;2023-03-16T01:33:58;94800.53;;;-2.32;100.00
11487;BME280;10510;47.942;9.442;2023-03-16T01:36:03;94806.78;;;-2.36;100.00
11487;BME280;10510;47.942;9.442;2023-03-16T01:38:03;94807.91;;;-2.40;100.00
11487;BME280;10510;47.942;9.442;2023-03-16T01:40:04;94808.91;;;-2.42;100.00
11487;BME280;10510;47.942;9.442;2023-03-16T01:42:05;94814.16;;;-2.44;100.00
11487;BME280;10510;47.942;9.442;2023-03-16T01:44:10;94806.56;;;-2.45;100.00
11487;BME280;10510;47.942;9.442;2023-03-16T01:46:16;94807.50;;;-2.46;100.00
11487;BME280;10510;47.942;9.442;2023-03-16T01:48:19;94802.47;;;-2.48;100.00
11487;BME280;10510;47.942;9.442;2023-03-16T01:50:21;94800.00;;;-2.49;100.00
11487;BME280;10510;47.942;9.442;2023-03-16T01:52:24;94801.03;;;-2.52;100.00
11487;BME280;10510;47.942;9.442;2023-03-16T01:54:40;94801.03;;;-2.52;100.00
11487;BME280;10510;47.942;9.442;2023-03-16T01:57:05;94803.47;;;-2.51;100.00
11487;BME280;10510;47.942;9.442;2023-03-16T01:59:12;94794.16;;;-2.52;100.00
11487;BME280;10510;47.942;9.442;2023-03-16T02:01:13;94796.81;;;-2.53;100.00
11487;BME280;10510;47.942;9.442;2023-03-16T02:03:15;94799.56;;;-2.56;100.00
11487;BME280;10510;47.942;9.442;2023-03-16T02:05:30;94791.19;;;-2.58;100.00
11487;BME280;10510;47.942;9.442;2023-03-16T02:07:36;94797.00;;;-2.56;100.00
11487;BME280;10510;47.942;9.442;2023-03-16T02:09:41;94792.75;;;-2.56;100.00
11487;BME280;10510;47.942;9.442;2023-03-16T02:11:45;94797.00;;;-2.56;100.00
11487;BME280;10510;47.942;9.442;2023-03-16T02:13:46;94786.28;;;-2.61;100.00
11487;BME280;10510;47.942;9.442;2023-03-16T02:15:48;94789.94;;;-2.65;100.00
11487;BME280;10510;47.942;9.442;2023-03-16T02:17:49;94790.06;;;-2.67;100.00
11487;BME280;10510;47.942;9.442;2023-03-16T02:20:19;94787.56;;;-2.68;100.00
11487;BME280;10510;47.942;9.442;2023-03-16T02:22:23;94796.91;;;-2.67;100.00
11487;BME280;10510;47.942;9.442;2023-03-16T02:24:24;94790.25;;;-2.70;100.00
11487;BME280;10510;47.942;9.442;2023-03-16T02:26:41;94789.44;;;-2.70;100.00
11487;BME280;10510;47.942;9.442;2023-03-16T02:30:53;94790.34;;;-2.71;100.00
11487;BME280;10510;47.942;9.442;2023-03-16T02:32:53;94773.34;;;-2.72;100.00
11487;BME280;10510;47.942;9.442;2023-03-16T02:34:55;94781.97;;;-2.73;100.00
11487;BME280;10510;47.942;9.442;2023-03-16T02:36:56;94773.56;;;-2.76;100.00
11487;BME280;10510;47.942;9.442;2023-03-16T02:38:57;94771.09;;;-2.77;100.00
11487;BME280;10510;47.942;9.442;2023-03-16T02:41:04;94773.94;;;-2.82;100.00
11487;BME280;10510;47.942;9.442;2023-03-16T02:43:12;94773.94;;;-2.82;100.00
11487;BME280;10510;47.942;9.442;2023-03-16T02:45:14;94766.28;;;-2.82;100.00
11487;BME280;10510;47.942;9.442;2023-03-16T02:47:22;94772.28;;;-2.83;100.00
11487;BME280;10510;47.942;9.442;2023-03-16T02:49:39;94773.34;;;-2.85;100.00
11487;BME280;10510;47.942;9.442;2023-03-16T02:51:42;94768.50;;;-2.90;100.00
11487;BME280;10510;47.942;9.442;2023-03-16T02:53:43;94770.25;;;-2.90;100.00
11487;BME280;10510;47.942;9.442;2023-03-16T02:55:43;94767.78;;;-2.92;100.00
11487;BME280;10510;47.942;9.442;2023-03-16T02:57:44;94776.38;;;-2.93;100.00
11487;BME280;10510;47.942;9.442;2023-03-16T02:59:45;94768.91;;;-2.96;100.00
11487;BME280;10510;47.942;9.442;2023-03-16T03:01:45;94770.72;;;-2.98;100.00
11487;BME280;10510;47.942;9.442;2023-03-16T03:03:45;94774.28;;;-3.01;100.00
11487;BME280;10510;47.942;9.442;2023-03-16T03:05:46;94782.09;;;-3.02;100.00
11487;BME280;10510;47.942;9.442;2023-03-16T03:07:46;94773.59;;;-3.03;100.00
11487;BME280;10510;47.942;9.442;2023-03-16T03:09:46;94774.50;;;-3.04;100.00
11487;BME280;10510;47.942;9.442;2023-03-16T03:11:47;94778.78;;;-3.04;100.00
11487;BME280;10510;47.942;9.442;2023-03-16T03:13:47;94769.50;;;-3.05;100.00
11487;BME280;10510;47.942;9.442;2023-03-16T03:15:47;94767.75;;;-3.05;100.00
11487;BME280;10510;47.942;9.442;2023-03-16T03:17:47;94766.13;;;-3.06;100.00
11487;BME280;10510;47.942;9.442;2023-03-16T03:19:48;94760.16;;;-3.06;100.00
11487;BME280;10510;47.942;9.442;2023-03-16T03:21:49;94767.13;;;-3.08;100.00
11487;BME280;10510;47.942;9.442;2023-03-16T03:23:49;94762.84;;;-3.08;100.00
11487;BME280;10510;47.942;9.442;2023-03-16T03:25:50;94772.13;;;-3.07;100.00
11487;BME280;10510;47.942;9.442;2023-03-16T03:27:50;94766.31;;;-3.09;100.00
11487;BME280;10510;47.942;9.442;2023-03-16T03:29:53;94770.59;;;-3.09;100.00
11487;BME280;10510;47.942;9.442;2023-03-16T03:31:53;94769.88;;;-3.11;100.00
11487;BME280;10510;47.942;9.442;2023-03-16T03:33:53;94778.38;;;-3.11;100.00
11487;BME280;10510;47.942;9.442;2023-03-16T03:35:58;94775.81;;;-3.11;100.00
11487;BME280;10510;47.942;9.442;2023-03-16T03:37:58;94781.00;;;-3.12;100.00
11487;BME280;10510;47.942;9.442;2023-03-16T03:39:59;94780.41;;;-3.16;100.00
11487;BME280;10510;47.942;9.442;2023-03-16T03:41:59;94782.22;;;-3.18;100.00
11487;BME280;10510;47.942;9.442;2023-03-16T03:44:03;94776.28;;;-3.18;100.00
11487;BME280;10510;47.942;9.442;2023-03-16T03:46:03;94775.38;;;-3.17;100.00
11487;BME280;10510;47.942;9.442;2023-03-16T03:48:04;94766.06;;;-3.18;100.00
11487;BME280;10510;47.942;9.442;2023-03-16T03:50:05;94764.44;;;-3.20;100.00
11487;BME280;10510;47.942;9.442;2023-03-16T03:52:05;94762.81;;;-3.21;100.00
11487;BME280;10510;47.942;9.442;2023-03-16T03:54:07;94765.44;;;-3.22;100.00
11487;BME280;10510;47.942;9.442;2023-03-16T03:56:07;94765.53;;;-3.24;100.00
11487;BME280;10510;47.942;9.442;2023-03-16T03:58:08;94754.78;;;-3.29;100.00
11487;BME280;10510;47.942;9.442;2023-03-16T04:00:08;94754.97;;;-3.32;100.00
11487;BME280;10510;47.942;9.442;2023-03-16T04:02:13;94749.88;;;-3.32;100.00
11487;BME280;10510;47.942;9.442;2023-03-16T04:04:13;94751.69;;;-3.34;100.00
11487;BME280;10510;47.942;9.442;2023-03-16T04:06:14;94746.66;;;-3.35;100.00
11487;BME280;10510;47.942;9.442;2023-03-16T04:08:14;94740.84;;;-3.37;100.00
11487;BME280;10510;47.942;9.442;2023-03-16T04:10:15;94737.47;;;-3.38;100.00
11487;BME280;10510;47.942;9.442;2023-03-16T04:12:15;94735.00;;;-3.39;100.00
11487;BME280;10510;47.942;9.442;2023-03-16T04:14:15;94731.63;;;-3.40;100.00
11487;BME280;10510;47.942;9.442;2023-03-16T04:16:15;94736.00;;;-3.42;100.00
11487;BME280;10510;47.942;9.442;2023-03-16T04:18:16;94742.88;;;-3.43;100.00
11487;BME280;10510;47.942;9.442;2023-03-16T04:20:16;94745.53;;;-3.44;100.00
11487;BME280;10510;47.942;9.442;2023-03-16T04:22:18;94752.34;;;-3.45;100.00
11487;BME280;10510;47.942;9.442;2023-03-16T04:24:18;94746.34;;;-3.44;100.00
11487;BME280;10510;47.942;9.442;2023-03-16T04:26:22;94744.69;;;-3.45;100.00
11487;BME280;10510;47.942;9.442;2023-03-16T04:28:24;94743.06;;;-3.46;100.00
11487;BME280;10510;47.942;9.442;2023-03-16T04:30:25;94746.44;;;-3.45;100.00
11487;BME280;10510;47.942;9.442;2023-03-16T04:32:26;94748.97;;;-3.45;100.00
11487;BME280;10510;47.942;9.442;2023-03-16T04:34:26;94741.44;;;-3.47;100.00
11487;BME280;10510;47.942;9.442;2023-03-16T04:36:27;94739.78;;;-3.48;100.00
11487;BME280;10510;47.942;9.442;2023-03-16T04:38:28;94738.97;;;-3.48;100.00
11487;BME280;10510;47.942;9.442;2023-03-16T04:40:28;94740.69;;;-3.49;100.00
11487;BME280;10510;47.942;9.442;2023-03-16T04:42:29;94728.84;;;-3.50;100.00
11487;BME280;10510;47.942;9.442;2023-03-16T04:44:29;94744.06;;;-3.48;100.00
11487;BME280;10510;47.942;9.442;2023-03-16T04:46:29;94733.03;;;-3.49;100.00
11487;BME280;10510;47.942;9.442;2023-03-16T04:48:30;94731.41;;;-3.50;100.00
11487;BME280;10510;47.942;9.442;2023-03-16T04:50:31;94728.00;;;-3.50;100.00
11487;BME280;10510;47.942;9.442;2023-03-16T04:52:31;94722.00;;;-3.49;100.00
11487;BME280;10510;47.942;9.442;2023-03-16T04:54:32;94711.84;;;-3.51;100.00
11487;BME280;10510;47.942;9.442;2023-03-16T04:56:33;94707.88;;;-3.55;100.00
11487;BME280;10510;47.942;9.442;2023-03-16T04:58:33;94714.78;;;-3.57;100.00
11487;BME280;10510;47.942;9.442;2023-03-16T05:00:34;94708.13;;;-3.59;100.00
11487;BME280;10510;47.942;9.442;2023-03-16T05:02:34;94712.53;;;-3.61;100.00
11487;BME280;10510;47.942;9.442;2023-03-16T05:04:35;94718.47;;;-3.61;100.00
11487;BME280;10510;47.942;9.442;2023-03-16T05:06:35;94720.22;;;-3.61;100.00
11487;BME280;10510;47.942;9.442;2023-03-16T05:08:35;94720.22;;;-3.61;100.00
11487;BME280;10510;47.942;9.442;2023-03-16T05:10:36;94713.56;;;-3.64;100.00
11487;BME280;10510;47.942;9.442;2023-03-16T05:12:36;94709.34;;;-3.65;100.00
11487;BME280;10510;47.942;9.442;2023-03-16T05:14:36;94705.97;;;-3.66;100.00
11487;BME280;10510;47.942;9.442;2023-03-16T05:16:36;94708.63;;;-3.67;100.00
11487;BME280;10510;47.942;9.442;2023-03-16T05:18:37;94703.59;;;-3.69;100.00
11487;BME280;10510;47.942;9.442;2023-03-16T05:20:37;94704.53;;;-3.70;100.00
11487;BME280;10510;47.942;9.442;2023-03-16T05:22:42;94703.72;;;-3.70;100.00
11487;BME280;10510;47.942;9.442;2023-03-16T05:24:43;94712.19;;;-3.70;100.00
11487;BME280;10510;47.942;9.442;2023-03-16T05:26:43;94710.53;;;-3.71;100.00
11487;BME280;10510;47.942;9.442;2023-03-16T05:28:44;94709.63;;;-3.70;100.00
11487;BME280;10510;47.942;9.442;2023-03-16T05:30:44;94709.63;;;-3.70;100.00
11487;BME280;10510;47.942;9.442;2023-03-16T05:32:44;94709.63;;;-3.70;100.00
11487;BME280;10510;47.942;9.442;2023-03-16T05:34:45;94707.91;;;-3.69;100.00
11487;BME280;10510;47.942;9.442;2023-03-16T05:36:46;94706.28;;;-3.70;100.00
11487;BME280;10510;47.942;9.442;2023-03-16T05:38:46;94704.72;;;-3.73;100.00
11487;BME280;10510;47.942;9.442;2023-03-16T05:40:46;94707.34;;;-3.74;100.00
11487;BME280;10510;47.942;9.442;2023-03-16T05:42:56;94709.84;;;-3.73;100.00
11487;BME280;10510;47.942;9.442;2023-03-16T05:44:56;94698.59;;;-3.70;100.00
11487;BME280;10510;47.942;9.442;2023-03-16T05:46:56;94705.34;;;-3.69;100.00
11487;BME280;10510;47.942;9.442;2023-03-16T05:48:57;94705.97;;;-3.66;100.00
11487;BME280;10510;47.942;9.442;2023-03-16T05:50:57;94711.06;;;-3.66;100.00
11487;BME280;10510;47.942;9.442;2023-03-16T05:52:57;94710.25;;;-3.66;100.00
11487;BME280;10510;47.942;9.442;2023-03-16T05:54:57;94708.44;;;-3.64;100.00
11487;BME280;10510;47.942;9.442;2023-03-16T05:56:58;94708.34;;;-3.62;100.00
11487;BME280;10510;47.942;9.442;2023-03-16T05:58:58;94704.75;;;-3.60;100.00
11487;BME280;10510;47.942;9.442;2023-03-16T06:00:59;94705.50;;;-3.58;100.00
11487;BME280;10510;47.942;9.442;2023-03-16T06:03:04;94702.94;;;-3.58;100.00
11487;BME280;10510;47.942;9.442;2023-03-16T06:05:05;94702.03;;;-3.57;100.00
11487;BME280;10510;47.942;9.442;2023-03-16T06:07:06;94701.94;;;-3.55;100.00
11487;BME280;10510;47.942;9.442;2023-03-16T06:09:06;94700.19;;;-3.55;100.00
11487;BME280;10510;47.942;9.442;2023-03-16T06:11:09;94705.19;;;-3.53;100.00
11487;BME280;10510;47.942;9.442;2023-03-16T06:13:10;94706.22;;;-3.56;100.00
11487;BME280;10510;47.942;9.442;2023-03-16T06:15:11;94713.06;;;-3.56;100.00
11487;BME280;10510;47.942;9.442;2023-03-16T06:17:11;94717.28;;;-3.55;100.00
11487;BME280;10510;47.942;9.442;2023-03-16T06:19:11;94706.94;;;-3.54;100.00
11487;BME280;10510;47.942;9.442;2023-03-16T06:21:12;94714.41;;;-3.51;100.00
11487;BME280;10510;47.942;9.442;2023-03-16T06:23:12;94714.41;;;-3.51;100.00
11487;BME280;10510;47.942;9.442;2023-03-16T06:25:14;94724.00;;;-3.54;100.00
11487;BME280;10510;47.942;9.442;2023-03-16T06:27:14;94722.38;;;-3.55;100.00
11487;BME280;10510;47.942;9.442;2023-03-16T06:29:14;94727.31;;;-3.52;100.00
11487;BME280;10510;47.942;9.442;2023-03-16T06:31:15;94728.84;;;-3.50;100.00
11487;BME280;10510;47.942;9.442;2023-03-16T06:33:15;94730.28;;;-3.46;100.00
11487;BME280;10510;47.942;9.442;2023-03-16T06:35:15;94733.38;;;-3.40;100.00
11487;BME280;10510;47.942;9.442;2023-03-16T06:37:16;94734.91;;;-3.38;100.00
11487;BME280;10510;47.942;9.442;2023-03-16T06:39:16;94727.88;;;-3.34;100.00
11487;BME280;10510;47.942;9.442;2023-03-16T06:41:16;94734.53;;;-3.32;100.00
11487;BME280;10510;47.942;9.442;2023-03-16T06:43:16;94722.25;;;-3.27;100.00
11487;BME280;10510;47.942;9.442;2023-03-16T06:45:17;94719.34;;;-3.21;100.00
11487;BME280;10510;47.942;9.442;2023-03-16T06:47:20;94726.41;;;-3.11;100.00
11487;BME280;10510;47.942;9.442;2023-03-16T06:49:20;94720.91;;;-3.05;100.00
11487;BME280;10510;47.942;9.442;2023-03-16T06:51:20;94716.19;;;-2.99;100.00
11487;BME280;10510;47.942;9.442;2023-03-16T06:53:21;94714.06;;;-2.92;100.00
11487;BME280;10510;47.942;9.442;2023-03-16T06:55:21;94711.00;;;-2.84;100.00
11487;BME280;10510;47.942;9.442;2023-03-16T06:57:21;94718.28;;;-2.78;100.00
11487;BME280;10510;47.942;9.442;2023-03-16T06:59:22;94713.56;;;-2.71;100.00
11487;BME280;10510;47.942;9.442;2023-03-16T07:01:22;94724.22;;;-2.65;100.00
11487;BME280;10510;47.942;9.442;2023-03-16T07:03:23;94719.53;;;-2.58;100.00
11487;BME280;10510;47.942;9.442;2023-03-16T07:05:23;94719.81;;;-2.50;100.00
11487;BME280;10510;47.942;9.442;2023-03-16T07:07:23;94718.38;;;-2.41;100.00
11487;BME280;10510;47.942;9.442;2023-03-16T07:09:23;94716.84;;;-2.31;100.00
11487;BME280;10510;47.942;9.442;2023-03-16T07:11:24;94720.44;;;-2.21;100.00
11487;BME280;10510;47.942;9.442;2023-03-16T07:13:24;94718.06;;;-2.11;100.00
11487;BME280;10510;47.942;9.442;2023-03-16T07:15:25;94721.63;;;-2.01;100.00
11487;BME280;10510;47.942;9.442;2023-03-16T07:17:25;94719.16;;;-1.90;100.00
11487;BME280;10510;47.942;9.442;2023-03-16T07:19:26;94720.78;;;-1.76;100.00
11487;BME280;10510;47.942;9.442;2023-03-16T07:21:26;94726.66;;;-1.63;100.00
11487;BME280;10510;47.942;9.442;2023-03-16T07:23:27;94729.44;;;-1.53;100.00
11487;BME280;10510;47.942;9.442;2023-03-16T07:25:27;94733.69;;;-1.41;100.00
11487;BME280;10510;47.942;9.442;2023-03-16T07:27:27;94733.31;;;-1.23;100.00
11487;BME280;10510;47.942;9.442;2023-03-16T07:29:28;94732.69;;;-1.03;100.00
11487;BME280;10510;47.942;9.442;2023-03-16T07:31:29;94730.31;;;-0.82;100.00
11487;BME280;10510;47.942;9.442;2023-03-16T07:33:31;94729.06;;;-0.65;100.00
11487;BME280;10510;47.942;9.442;2023-03-16T07:35:32;94728.41;;;-0.44;100.00
11487;BME280;10510;47.942;9.442;2023-03-16T07:37:32;94732.88;;;-0.24;100.00
11487;BME280;10510;47.942;9.442;2023-03-16T07:39:34;94734.41;;;0.01;100.00
11487;BME280;10510;47.942;9.442;2023-03-16T07:41:35;94732.66;;;0.24;100.00
11487;BME280;10510;47.942;9.442;2023-03-16T07:43:35;94736.38;;;0.54;100.00
11487;BME280;10510;47.942;9.442;2023-03-16T07:45:35;94744.38;;;0.83;100.00
11487;BME280;10510;47.942;9.442;2023-03-16T07:47:36;94741.81;;;1.15;100.00
11487;BME280;10510;47.942;9.442;2023-03-16T07:49:36;94746.34;;;1.44;100.00
11487;BME280;10510;47.942;9.442;2023-03-16T07:51:36;94734.84;;;1.69;100.00
11487;BME280;10510;47.942;9.442;2023-03-16T07:53:38;94740.69;;;1.92;100.00
11487;BME280;10510;47.942;9.442;2023-03-16T07:55:38;94736.31;;;2.23;100.00
11487;BME280;10510;47.942;9.442;2023-03-16T07:57:39;94738.91;;;2.63;100.00
11487;BME280;10510;47.942;9.442;2023-03-16T07:59:41;94732.84;;;3.03;100.00
11487;BME280;10510;47.942;9.442;2023-03-16T08:01:42;94733.13;;;3.39;100.00
11487;BME280;10510;47.942;9.442;2023-03-16T08:03:42;94728.47;;;3.72;100.00
11487;BME280;10510;47.942;9.442;2023-03-16T08:05:43;94724.84;;;4.02;100.00
11487;BME280;10510;47.942;9.442;2023-03-16T08:07:44;94724.59;;;4.32;100.00
11487;BME280;10510;47.942;9.442;2023-03-16T08:09:44;94722.72;;;4.52;100.00
11487;BME280;10510;47.942;9.442;2023-03-16T08:11:45;94730.19;;;4.83;100.00
11487;BME280;10510;47.942;9.442;2023-03-16T08:13:45;94729.41;;;5.00;100.00
11487;BME280;10510;47.942;9.442;2023-03-16T08:15:50;94730.66;;;5.14;100.00
11487;BME280;10510;47.942;9.442;2023-03-16T08:18:00;94728.28;;;5.57;100.00
11487;BME280;10510;47.942;9.442;2023-03-16T08:20:04;94723.03;;;5.92;100.00
11487;BME280;10510;47.942;9.442;2023-03-16T08:22:10;94716.59;;;6.31;100.00
11487;BME280;10510;47.942;9.442;2023-03-16T08:24:11;94722.06;;;6.54;100.00
11487;BME280;10510;47.942;9.442;2023-03-16T08:26:11;94715.31;;;6.69;100.00
11487;BME280;10510;47.942;9.442;2023-03-16T08:28:13;94715.50;;;6.84;100.00
11487;BME280;10510;47.942;9.442;2023-03-16T08:30:15;94722.81;;;6.80;100.00
11487;BME280;10510;47.942;9.442;2023-03-16T08:32:15;94714.94;;;7.07;100.00
11487;BME280;10510;47.942;9.442;2023-03-16T08:34:16;94712.66;;;7.28;100.00
11487;BME280;10510;47.942;9.442;2023-03-16T08:36:18;94712.03;;;7.50;100.00
11487;BME280;10510;47.942;9.442;2023-03-16T08:38:20;94711.22;;;7.58;100.00
11487;BME280;10510;47.942;9.442;2023-03-16T08:40:20;94713.00;;;7.74;100.00
11487;BME280;10510;47.942;9.442;2023-03-16T08:42:22;94714.91;;;8.21;100.00
11487;BME280;10510;47.942;9.442;2023-03-16T08:44:22;94715.16;;;8.34;100.00
11487;BME280;10510;47.942;9.442;2023-03-16T08:46:25;94721.69;;;8.30;100.00
11487;BME280;10510;47.942;9.442;2023-03-16T08:48:25;94717.19;;;8.16;100.00
11487;BME280;10510;47.942;9.442;2023-03-16T08:50:25;94724.47;;;8.20;100.00
11487;BME280;10510;47.942;9.442;2023-03-16T08:52:27;94721.72;;;8.22;100.00
11487;BME280;10510;47.942;9.442;2023-03-16T08:54:27;94726.78;;;8.24;100.00
11487;BME280;10510;47.942;9.442;2023-03-16T08:56:28;94721.84;;;8.45;100.00
11487;BME280;10510;47.942;9.442;2023-03-16T08:58:31;94724.22;;;8.63;100.00
11487;BME280;10510;47.942;9.442;2023-03-16T09:00:32;94724.47;;;8.76;100.00
11487;BME280;10510;47.942;9.442;2023-03-16T09:02:32;94719.66;;;8.96;100.00
11487;BME280;10510;47.942;9.442;2023-03-16T09:04:37;94725.16;;;9.09;100.00
11487;BME280;10510;47.942;9.442;2023-03-16T09:06:37;94724.47;;;9.16;100.00
11487;BME280;10510;47.942;9.442;2023-03-16T09:08:39;94724.53;;;9.30;100.00
11487;BME280;10510;47.942;9.442;2023-03-16T09:10:39;94720.19;;;9.46;100.00
11487;BME280;10510;47.942;9.442;2023-03-16T09:12:42;94722.59;;;9.70;100.00
11487;BME280;10510;47.942;9.442;2023-03-16T09:14:42;94713.03;;;9.86;100.00
11487;BME280;10510;47.942;9.442;2023-03-16T09:16:42;94711.59;;;10.36;100.00
11487;BME280;10510;47.942;9.442;2023-03-16T09:18:43;94704.50;;;10.96;100.00
11487;BME280;10510;47.942;9.442;2023-03-16T09:20:43;94707.41;;;11.44;100.00
11487;BME280;10510;47.942;9.442;2023-03-16T09:22:46;94700.31;;;11.80;100.00
11487;BME280;10510;47.942;9.442;2023-03-16T09:24:47;94701.72;;;12.33;100.00
11487;BME280;10510;47.942;9.442;2023-03-16T09:26:51;94691.38;;;12.59;100.00
11487;BME280;10510;47.942;9.442;2023-03-16T09:28:51;94687.88;;;12.87;100.00
11487;BME280;10510;47.942;9.442;2023-03-16T09:30:55;94684.75;;;13.18;100.00
11487;BME280;10510;47.942;9.442;2023-03-16T09:32:56;94675.94;;;13.46;100.00
11487;BME280;10510;47.942;9.442;2023-03-16T09:34:56;94678.59;;;13.72;100.00
11487;BME280;10510;47.942;9.442;2023-03-16T09:36:57;94667.50;;;13.83;100.00
11487;BME280;10510;47.942;9.442;2023-03-16T09:38:57;94666.88;;;13.88;100.00
11487;BME280;10510;47.942;9.442;2023-03-16T09:41:05;94667.47;;;13.97;100.00
11487;BME280;10510;47.942;9.442;2023-03-16T09:46:00;94666.09;;;13.94;100.00
11487;BME280;10510;47.942;9.442;2023-03-16T09:48:02;94674.75;;;14.01;100.00
11487;BME280;10510;47.942;9.442;2023-03-16T09:50:06;94669.88;;;14.12;100.00
11487;BME280;10510;47.942;9.442;2023-03-16T09:52:18;94668.63;;;14.34;100.00
11487;BME280;10510;47.942;9.442;2023-03-16T09:54:28;94670.44;;;14.40;100.00
11487;BME280;10510;47.942;9.442;2023-03-16T09:56:39;94659.72;;;14.55;100.00
11487;BME280;10510;47.942;9.442;2023-03-16T09:58:41;94655.66;;;14.46;100.00
11487;BME280;10510;47.942;9.442;2023-03-16T10:03:29;94656.91;;;14.57;100.00
11487;BME280;10510;47.942;9.442;2023-03-16T10:05:31;94657.03;;;14.75;100.00
11487;BME280;10510;47.942;9.442;2023-03-16T10:07:51;94646.94;;;15.10;100.00
11487;BME280;10510;47.942;9.442;2023-03-16T10:09:58;94640.00;;;15.54;100.00
11487;BME280;10510;47.942;9.442;2023-03-16T10:12:03;94642.88;;;15.46;100.00
11487;BME280;10510;47.942;9.442;2023-03-16T10:14:19;94641.72;;;15.67;100.00
11487;BME280;10510;47.942;9.442;2023-03-16T10:18:46;94634.47;;;16.12;100.00
11487;BME280;10510;47.942;9.442;2023-03-16T10:20:48;94635.22;;;16.38;100.00
11487;BME280;10510;47.942;9.442;2023-03-16T10:22:51;94634.28;;;16.51;100.00
11487;BME280;10510;47.942;9.442;2023-03-16T10:27:05;94627.03;;;16.28;100.00
11487;BME280;10510;47.942;9.442;2023-03-16T10:29:12;94630.69;;;16.45;100.00
11487;BME280;10510;47.942;9.442;2023-03-16T10:31:15;94641.69;;;16.79;100.00
11487;BME280;10510;47.942;9.442;2023-03-16T10:33:27;94639.44;;;16.83;100.00
11487;BME280;10510;47.942;9.442;2023-03-16T10:37:50;94637.38;;;17.03;100.00
11487;BME280;10510;47.942;9.442;2023-03-16T10:39:52;94632.88;;;17.34;100.00
11487;BME280;10510;47.942;9.442;2023-03-16T10:41:56;94626.97;;;17.50;100.00
11487;BME280;10510;47.942;9.442;2023-03-16T10:44:13;94627.53;;;17.52;100.00
11487;BME280;10510;47.942;9.442;2023-03-16T10:46:13;94620.25;;;17.36;100.00
11487;BME280;10510;47.942;9.442;2023-03-16T10:48:17;94615.44;;;17.33;100.00
11487;BME280;10510;47.942;9.442;2023-03-16T10:50:23;94617.94;;;17.28;100.00
11487;BME280;10510;47.942;9.442;2023-03-16T10:52:43;94615.28;;;17.28;100.00
11487;BME280;10510;47.942;9.442;2023-03-16T10:55:00;94622.06;;;17.35;100.00